createdAt,value
2022-12-19T00:00:31.072Z,-2.29
2022-12-19T00:02:59.217Z,-2.26
2022-12-19T00:05:27.392Z,-2.18
2022-12-19T00:07:55.438Z,-2.32
2022-12-19T00:10:24.881Z,-2.31
2022-12-19T00:12:52.964Z,-2.42
2022-12-19T00:15:21.107Z,-2.48
2022-12-19T00:17:49.241Z,-2.50
2022-12-19T00:20:18.678Z,-2.36
2022-12-19T00:22:47.218Z,-2.35
2022-12-19T00:25:17.855Z,-2.27
2022-12-19T00:27:48.623Z,-2.24
2022-12-19T00:30:16.902Z,-2.30
2022-12-19T00:32:45.035Z,-1.91
2022-12-19T00:35:13.046Z,-2.23
2022-12-19T00:37:49.361Z,-2.18
2022-12-19T00:40:18.092Z,-2.30
2022-12-19T00:42:53.692Z,-2.22
2022-12-19T00:45:21.989Z,-2.08
2022-12-19T00:47:50.133Z,-2.14
2022-12-19T00:50:18.258Z,-2.01
2022-12-19T00:52:46.319Z,-1.64
2022-12-19T00:55:18.986Z,-2.08
2022-12-19T00:57:50.953Z,-1.96
2022-12-19T01:00:24.064Z,-2.08
2022-12-19T01:02:55.417Z,-2.11
2022-12-19T01:05:23.570Z,-1.62
2022-12-19T01:07:51.629Z,-2.00
2022-12-19T01:10:19.685Z,-1.88
2022-12-19T01:12:47.187Z,-1.77
2022-12-19T01:15:21.096Z,-1.71
2022-12-19T01:17:49.837Z,-1.61
2022-12-19T01:20:29.521Z,-1.16
2022-12-19T01:23:00.038Z,-1.13
2022-12-19T01:25:28.685Z,-1.57
2022-12-19T01:27:56.964Z,-1.42
2022-12-19T01:30:26.777Z,-1.42
2022-12-19T01:33:01.221Z,-1.14
2022-12-19T01:35:31.233Z,-1.13
2022-12-19T01:38:07.751Z,-0.89
2022-12-19T01:40:37.272Z,-1.20
2022-12-19T01:43:05.590Z,-1.50
2022-12-19T01:45:43.631Z,-1.44
2022-12-19T01:48:18.497Z,-1.61
2022-12-19T01:51:01.956Z,-1.47
2022-12-19T01:53:49.428Z,-1.51
2022-12-19T01:56:19.718Z,-1.54
2022-12-19T01:58:48.460Z,-1.58
2022-12-19T02:01:18.726Z,-1.64
2022-12-19T02:03:47.081Z,-1.63
2022-12-19T02:06:18.525Z,-1.66
2022-12-19T02:08:48.248Z,-1.47
2022-12-19T02:11:16.517Z,-1.11
2022-12-19T02:13:45.868Z,-1.31
2022-12-19T02:16:22.928Z,-1.12
2022-12-19T02:18:58.079Z,-1.49
2022-12-19T02:21:30.808Z,-1.40
2022-12-19T02:24:25.404Z,-1.09
2022-12-19T02:26:58.354Z,-0.84
2022-12-19T02:29:45.836Z,-1.27
2022-12-19T02:32:19.339Z,-1.41
2022-12-19T02:34:54.144Z,-1.46
2022-12-19T02:37:25.134Z,-1.46
2022-12-19T02:39:56.572Z,-1.36
2022-12-19T02:42:27.732Z,-0.71
2022-12-19T02:45:00.959Z,-0.85
2022-12-19T02:47:33.032Z,-0.85
2022-12-19T02:50:02.826Z,-0.63
2022-12-19T02:52:47.698Z,-0.78
2022-12-19T02:55:21.962Z,-0.94
2022-12-19T02:58:01.161Z,-0.88
2022-12-19T03:00:29.531Z,-0.95
2022-12-19T03:03:06.743Z,-0.91
2022-12-19T03:05:37.643Z,-0.85
2022-12-19T03:08:09.224Z,-0.82
2022-12-19T03:10:42.613Z,-0.96
2022-12-19T03:13:12.760Z,-0.81
2022-12-19T03:15:40.989Z,-0.88
2022-12-19T03:18:12.006Z,-0.96
2022-12-19T03:20:44.658Z,-0.96
2022-12-19T03:23:13.274Z,-0.98
2022-12-19T03:25:45.637Z,-0.97
2022-12-19T03:28:17.142Z,-0.88
2022-12-19T03:30:46.662Z,-0.86
2022-12-19T03:33:17.611Z,-0.92
2022-12-19T03:35:48.083Z,-0.93
2022-12-19T03:38:19.789Z,-0.82
2022-12-19T03:40:49.646Z,-0.81
2022-12-19T03:43:17.540Z,-0.75
2022-12-19T03:45:49.237Z,-0.62
2022-12-19T03:48:23.643Z,-0.70
2022-12-19T03:50:55.238Z,-0.67
2022-12-19T03:53:31.404Z,-0.65
2022-12-19T03:56:02.288Z,-0.74
2022-12-19T03:58:33.420Z,-0.64
2022-12-19T04:01:02.586Z,-0.65
2022-12-19T04:03:32.879Z,-0.64
2022-12-19T04:06:01.782Z,-0.56
2022-12-19T04:08:33.130Z,-0.52
2022-12-19T04:11:04.889Z,-0.60
2022-12-19T04:13:35.884Z,-0.53
2022-12-19T04:16:07.923Z,-0.66
2022-12-19T04:18:38.409Z,-0.50
2022-12-19T04:21:09.279Z,-0.48
2022-12-19T04:23:41.064Z,-0.39
2022-12-19T04:26:09.868Z,-0.26
2022-12-19T04:28:41.679Z,-0.39
2022-12-19T04:31:12.392Z,-0.37
2022-12-19T04:33:42.183Z,-0.48
2022-12-19T04:36:11.164Z,-0.26
2022-12-19T04:38:39.200Z,0.02
2022-12-19T04:41:07.698Z,-0.05
2022-12-19T04:43:35.875Z,-0.30
2022-12-19T04:46:04.026Z,-0.12
2022-12-19T04:48:32.197Z,-0.20
2022-12-19T04:51:01.580Z,-0.12
2022-12-19T04:53:29.786Z,-0.23
2022-12-19T04:56:03.751Z,-0.07
2022-12-19T04:58:32.024Z,-0.09
2022-12-19T05:01:01.611Z,-0.15
2022-12-19T05:03:29.713Z,-0.12
2022-12-19T05:06:05.348Z,-0.07
2022-12-19T05:08:33.478Z,-0.26
2022-12-19T05:11:02.083Z,-0.09
2022-12-19T05:13:30.232Z,-0.12
2022-12-19T05:15:58.888Z,-0.07
2022-12-19T05:18:27.453Z,-0.03
2022-12-19T05:20:55.496Z,-0.06
2022-12-19T05:23:25.400Z,0.14
2022-12-19T05:25:53.620Z,0.01
2022-12-19T05:28:22.105Z,0.07
2022-12-19T05:30:52.517Z,0.00
2022-12-19T05:33:20.804Z,0.03
2022-12-19T05:35:49.332Z,0.07
2022-12-19T05:38:17.398Z,0.07
2022-12-19T05:40:47.250Z,0.04
2022-12-19T05:43:15.358Z,0.08
2022-12-19T05:45:43.371Z,0.10
2022-12-19T05:48:11.388Z,0.41
2022-12-19T05:50:39.505Z,0.19
2022-12-19T05:53:10.643Z,0.05
2022-12-19T05:55:38.735Z,0.33
2022-12-19T05:58:08.174Z,0.33
2022-12-19T06:00:36.228Z,0.49
2022-12-19T06:03:04.649Z,0.41
2022-12-19T06:05:33.245Z,0.48
2022-12-19T06:08:01.236Z,0.42
2022-12-19T06:10:29.260Z,0.54
2022-12-19T06:12:59.362Z,0.58
2022-12-19T06:15:28.812Z,0.65
2022-12-19T06:17:56.848Z,0.59
2022-12-19T06:20:24.851Z,0.44
2022-12-19T06:22:52.906Z,0.34
2022-12-19T06:25:20.889Z,0.44
2022-12-19T06:27:49.154Z,0.46
2022-12-19T06:30:17.297Z,0.46
2022-12-19T06:32:46.591Z,0.52
2022-12-19T06:35:14.646Z,0.45
2022-12-19T06:37:42.740Z,0.42
2022-12-19T06:40:32.911Z,0.45
2022-12-19T06:43:00.181Z,0.54
2022-12-19T06:45:28.236Z,0.62
2022-12-19T06:47:58.077Z,0.79
2022-12-19T06:50:27.852Z,0.65
2022-12-19T06:52:55.872Z,0.49
2022-12-19T06:55:24.397Z,0.48
2022-12-19T06:57:52.458Z,0.39
2022-12-19T07:00:21.712Z,0.45
2022-12-19T07:02:51.705Z,0.57
2022-12-19T07:05:21.420Z,0.54
2022-12-19T07:07:50.071Z,0.53
2022-12-19T07:10:18.167Z,0.31
2022-12-19T07:12:46.301Z,0.31
2022-12-19T07:15:14.870Z,0.42
2022-12-19T07:17:43.203Z,0.37
2022-12-19T07:20:11.934Z,0.23
2022-12-19T07:22:42.364Z,0.41
2022-12-19T07:25:12.660Z,0.52
2022-12-19T07:27:41.005Z,0.53
2022-12-19T07:30:09.742Z,0.63
2022-12-19T07:32:39.111Z,0.71
2022-12-19T07:35:07.570Z,0.54
2022-12-19T07:37:35.610Z,0.66
2022-12-19T07:40:05.479Z,0.74
2022-12-19T07:42:34.059Z,0.65
2022-12-19T07:45:02.340Z,0.80
2022-12-19T07:47:30.441Z,0.83
2022-12-19T07:50:01.404Z,0.81
2022-12-19T07:52:31.937Z,0.80
2022-12-19T07:55:00.000Z,0.57
2022-12-19T07:57:29.386Z,0.75
2022-12-19T07:59:57.419Z,0.74
2022-12-19T08:02:25.576Z,0.69
2022-12-19T08:04:53.801Z,0.87
2022-12-19T08:07:24.282Z,0.92
2022-12-19T08:09:52.450Z,1.01
2022-12-19T08:12:20.678Z,0.89
2022-12-19T08:14:54.155Z,0.67
2022-12-19T08:17:26.217Z,0.81
2022-12-19T08:19:54.336Z,0.93
2022-12-19T08:22:22.809Z,0.86
2022-12-19T08:24:50.848Z,0.99
2022-12-19T08:27:18.859Z,1.04
2022-12-19T08:29:47.516Z,0.97
2022-12-19T08:32:21.583Z,1.15
2022-12-19T08:34:50.072Z,1.07
2022-12-19T08:37:18.245Z,1.09
2022-12-19T08:39:46.327Z,1.22
2022-12-19T08:42:14.356Z,1.21
2022-12-19T08:44:42.389Z,1.20
2022-12-19T08:47:10.512Z,1.10
2022-12-19T08:49:39.903Z,1.15
2022-12-19T08:52:08.011Z,1.20
2022-12-19T08:54:36.171Z,1.35
2022-12-19T08:57:04.269Z,1.36
2022-12-19T08:59:32.475Z,1.40
2022-12-19T09:02:01.321Z,1.34
2022-12-19T09:05:51.578Z,1.25
2022-12-19T09:07:19.539Z,1.32
2022-12-19T09:09:47.561Z,1.41
2022-12-19T09:12:17.035Z,1.42
2022-12-19T09:14:47.266Z,1.65
2022-12-19T09:17:17.743Z,1.61
2022-12-19T09:19:48.155Z,1.66
2022-12-19T09:22:16.853Z,1.71
2022-12-19T09:24:46.443Z,1.76
2022-12-19T09:27:14.680Z,1.91
2022-12-19T09:29:45.382Z,2.03
2022-12-19T09:32:13.509Z,2.03
2022-12-19T09:34:43.919Z,2.12
2022-12-19T09:37:17.217Z,1.96
2022-12-19T09:39:49.668Z,2.10
2022-12-19T09:42:25.284Z,2.26
2022-12-19T09:45:01.022Z,2.19
2022-12-19T09:47:30.638Z,2.55
2022-12-19T09:49:59.640Z,2.33
2022-12-19T09:52:33.056Z,2.25
2022-12-19T09:55:04.872Z,2.64
2022-12-19T09:57:38.398Z,2.74
2022-12-19T10:00:09.435Z,2.89
2022-12-19T10:02:41.764Z,2.61
2022-12-19T10:05:23.070Z,2.96
2022-12-19T10:08:09.142Z,2.68
2022-12-19T10:12:37.970Z,3.13
2022-12-19T10:13:43.162Z,2.93
2022-12-19T10:16:17.151Z,3.17
2022-12-19T10:18:56.024Z,3.21
2022-12-19T10:22:07.639Z,3.05
2022-12-19T10:24:34.812Z,3.05
2022-12-19T10:27:10.096Z,3.03
2022-12-19T10:29:53.744Z,3.17
2022-12-19T10:32:26.434Z,3.28
2022-12-19T10:34:55.183Z,3.39
2022-12-19T10:37:34.335Z,3.47
2022-12-19T10:40:20.967Z,3.26
2022-12-19T10:43:07.034Z,3.17
2022-12-19T10:45:44.061Z,3.28
2022-12-19T10:48:17.685Z,3.28
2022-12-19T10:50:47.725Z,3.39
2022-12-19T10:53:16.240Z,3.34
2022-12-19T10:55:45.922Z,3.37
2022-12-19T10:58:21.126Z,3.49
2022-12-19T11:01:04.659Z,3.56
2022-12-19T11:03:34.067Z,4.02
2022-12-19T11:06:03.516Z,4.17
2022-12-19T11:08:32.987Z,4.25
2022-12-19T11:13:09.538Z,3.98
2022-12-19T11:18:01.535Z,3.75
2022-12-19T11:21:34.789Z,3.91
2022-12-19T11:29:36.450Z,3.97
2022-12-19T11:30:46.942Z,4.17
2022-12-19T11:30:47.658Z,4.19
2022-12-19T11:30:59.407Z,4.17
2022-12-19T11:34:21.175Z,4.54
2022-12-19T11:36:53.656Z,4.44
2022-12-19T11:39:26.723Z,4.44
2022-12-19T11:42:02.072Z,4.47
2022-12-19T11:44:35.440Z,4.32
2022-12-19T11:47:16.746Z,4.19
2022-12-19T11:49:51.054Z,4.29
2022-12-19T11:53:02.898Z,4.17
2022-12-19T11:55:24.640Z,4.27
2022-12-19T11:57:54.186Z,4.03
2022-12-19T12:00:24.818Z,4.08
2022-12-19T12:03:37.369Z,4.61
2022-12-19T12:06:12.883Z,4.99
2022-12-19T12:12:12.866Z,4.55
2022-12-19T12:17:32.388Z,4.73
2022-12-19T12:25:11.506Z,4.44
2022-12-19T12:30:58.101Z,4.80
2022-12-19T12:31:21.758Z,5.24
2022-12-19T12:31:26.704Z,4.71
2022-12-19T12:31:48.345Z,5.29
2022-12-19T12:31:53.067Z,6.10
2022-12-19T12:35:51.087Z,5.97
2022-12-19T12:38:45.352Z,6.32
2022-12-19T12:41:45.991Z,6.66
2022-12-19T12:44:14.647Z,6.38
2022-12-19T12:46:48.938Z,6.52
2022-12-19T12:49:25.146Z,6.17
2022-12-19T12:51:53.606Z,5.67
2022-12-19T12:54:28.986Z,5.63
2022-12-19T12:56:57.188Z,5.56
2022-12-19T12:59:26.541Z,6.34
2022-12-19T13:01:56.193Z,6.69
2022-12-19T13:04:29.878Z,6.05
2022-12-19T13:07:25.378Z,5.56
2022-12-19T13:10:05.575Z,5.86
2022-12-19T13:12:51.065Z,5.18
2022-12-19T13:15:20.538Z,5.17
2022-12-19T13:18:07.629Z,4.91
2022-12-19T13:20:43.955Z,4.79
2022-12-19T13:23:22.959Z,4.73
2022-12-19T13:25:53.793Z,4.73
2022-12-19T13:28:42.193Z,4.69
2022-12-19T13:31:21.036Z,4.76
2022-12-19T13:34:14.057Z,4.79
2022-12-19T13:39:49.334Z,4.82
2022-12-19T13:39:54.780Z,4.90
2022-12-19T13:42:43.153Z,4.93
2022-12-19T13:45:15.054Z,4.86
2022-12-19T13:47:44.576Z,4.74
2022-12-19T13:50:19.665Z,4.83
2022-12-19T13:52:51.045Z,5.01
2022-12-19T13:55:19.543Z,4.88
2022-12-19T13:57:49.961Z,4.68
2022-12-19T14:00:22.478Z,4.55
2022-12-19T14:02:52.599Z,4.65
2022-12-19T14:05:34.057Z,4.96
2022-12-19T14:08:10.945Z,4.76
2022-12-19T14:11:33.632Z,4.67
2022-12-19T14:14:03.029Z,4.61
2022-12-19T14:16:39.963Z,4.66
2022-12-19T14:19:19.705Z,4.62
2022-12-19T14:22:08.641Z,4.63
2022-12-19T14:24:35.816Z,4.70
2022-12-19T14:28:26.483Z,4.69
2022-12-19T14:30:27.816Z,4.54
2022-12-19T14:33:41.057Z,4.46
2022-12-19T14:36:05.957Z,4.53
2022-12-19T14:39:23.330Z,4.43
2022-12-19T14:41:40.152Z,4.39
2022-12-19T14:52:34.301Z,4.42
2022-12-19T14:53:51.972Z,4.47
2022-12-19T14:53:52.546Z,4.44
2022-12-19T14:54:42.092Z,4.52
2022-12-19T14:56:17.806Z,4.42
2022-12-19T14:58:53.700Z,4.61
2022-12-19T15:01:23.502Z,4.56
2022-12-19T15:04:52.155Z,4.40
2022-12-19T15:07:07.656Z,4.55
2022-12-19T15:11:03.268Z,4.72
2022-12-19T15:14:47.270Z,4.82
2022-12-19T15:15:40.986Z,4.38
2022-12-19T15:18:26.107Z,4.52
2022-12-19T15:20:56.976Z,4.39
2022-12-19T15:23:25.648Z,4.41
2022-12-19T15:26:03.738Z,4.36
2022-12-19T15:28:37.241Z,4.25
2022-12-19T15:31:07.882Z,4.29
2022-12-19T15:33:38.474Z,4.35
2022-12-19T15:36:17.696Z,4.21
2022-12-19T15:38:45.802Z,4.24
2022-12-19T15:41:17.267Z,4.06
2022-12-19T15:46:34.115Z,4.07
2022-12-19T15:49:02.542Z,3.93
2022-12-19T15:51:31.978Z,4.10
2022-12-19T15:54:38.359Z,4.08
2022-12-19T15:56:50.835Z,4.00
2022-12-19T15:59:24.275Z,3.96
2022-12-19T16:01:52.767Z,3.97
2022-12-19T16:04:21.612Z,3.93
2022-12-19T16:06:51.221Z,3.91
2022-12-19T16:09:20.986Z,4.08
2022-12-19T16:11:49.190Z,3.64
2022-12-19T16:14:17.500Z,3.65
2022-12-19T16:16:48.490Z,3.59
2022-12-19T16:19:26.347Z,3.70
2022-12-19T16:21:59.110Z,3.56
2022-12-19T16:24:27.742Z,3.45
2022-12-19T16:26:56.859Z,3.44
2022-12-19T16:29:29.059Z,3.70
2022-12-19T16:31:57.154Z,3.35
2022-12-19T16:34:25.696Z,3.53
2022-12-19T16:36:54.275Z,3.33
2022-12-19T16:39:23.795Z,3.89
2022-12-19T16:41:52.097Z,3.74
2022-12-19T16:44:20.716Z,4.08
2022-12-19T16:46:51.767Z,3.90
2022-12-19T16:49:22.762Z,4.41
2022-12-19T16:51:51.346Z,4.22
2022-12-19T16:54:20.111Z,3.97
2022-12-19T16:56:51.112Z,4.10
2022-12-19T16:59:20.775Z,4.11
2022-12-19T17:01:49.669Z,3.90
2022-12-19T17:04:19.366Z,4.17
2022-12-19T17:06:47.529Z,3.99
2022-12-19T17:09:16.640Z,3.76
2022-12-19T17:11:46.590Z,4.32
2022-12-19T17:14:18.982Z,4.00
2022-12-19T17:16:47.411Z,3.99
2022-12-19T17:19:20.776Z,4.15
2022-12-19T17:21:51.347Z,4.28
2022-12-19T17:24:19.644Z,4.26
2022-12-19T17:26:48.216Z,4.21
2022-12-19T17:29:17.664Z,4.51
2022-12-19T17:31:45.993Z,4.41
2022-12-19T17:34:17.237Z,4.17
2022-12-19T17:36:45.817Z,4.47
2022-12-19T17:39:19.566Z,3.92
2022-12-19T17:41:47.699Z,4.46
2022-12-19T17:44:18.777Z,4.35
2022-12-19T17:46:48.094Z,4.46
2022-12-19T17:49:18.637Z,3.82
2022-12-19T17:51:53.991Z,3.48
2022-12-19T17:54:22.820Z,3.33
2022-12-19T17:56:51.509Z,2.96
2022-12-19T17:59:21.131Z,3.18
2022-12-19T18:01:49.820Z,3.40
2022-12-19T18:04:19.649Z,3.55
2022-12-19T18:06:49.185Z,3.86
2022-12-19T18:09:19.216Z,3.63
2022-12-19T18:11:47.442Z,3.56
2022-12-19T18:14:16.213Z,3.44
2022-12-19T18:16:46.489Z,3.41
2022-12-19T18:19:18.512Z,3.94
2022-12-19T18:21:46.721Z,3.72
2022-12-19T18:24:16.372Z,3.72
2022-12-19T18:26:46.800Z,3.43
2022-12-19T18:29:14.883Z,3.33
2022-12-19T18:31:50.153Z,3.61
2022-12-19T18:34:21.623Z,3.04
2022-12-19T18:36:49.947Z,3.18
2022-12-19T18:39:20.415Z,3.35
2022-12-19T18:41:48.667Z,3.72
2022-12-19T18:44:17.130Z,4.06
2022-12-19T18:46:45.293Z,3.35
2022-12-19T18:49:13.517Z,3.35
2022-12-19T18:51:42.903Z,3.29
2022-12-19T18:54:15.079Z,3.37
2022-12-19T18:56:43.402Z,3.43
2022-12-19T18:59:11.473Z,3.57
2022-12-19T19:01:40.662Z,3.45
2022-12-19T19:04:12.478Z,3.35
2022-12-19T19:06:48.322Z,3.23
2022-12-19T19:09:20.446Z,3.64
2022-12-19T19:11:57.285Z,3.53
2022-12-19T19:14:25.614Z,3.85
2022-12-19T19:16:54.236Z,4.04
2022-12-19T19:19:22.541Z,3.31
2022-12-19T19:21:50.688Z,3.61
2022-12-19T19:24:21.881Z,3.93
2022-12-19T19:26:50.511Z,3.26
2022-12-19T19:29:19.826Z,3.25
2022-12-19T19:31:49.124Z,3.52
2022-12-19T19:34:19.518Z,3.83
2022-12-19T19:36:49.454Z,3.77
2022-12-19T19:39:19.832Z,3.71
2022-12-19T19:41:50.097Z,3.80
2022-12-19T19:44:18.258Z,3.70
2022-12-19T19:46:46.436Z,3.63
2022-12-19T19:49:15.489Z,3.81
2022-12-19T19:51:43.628Z,3.98
2022-12-19T19:54:11.744Z,4.00
2022-12-19T19:56:39.890Z,3.86
2022-12-19T19:59:09.376Z,3.70
2022-12-19T20:01:37.691Z,3.63
2022-12-19T20:04:06.125Z,4.15
2022-12-19T20:06:34.363Z,4.20
2022-12-19T20:09:02.455Z,3.76
2022-12-19T20:11:30.658Z,3.85
2022-12-19T20:13:58.749Z,3.72
2022-12-19T20:16:28.323Z,3.66
2022-12-19T20:18:56.615Z,3.60
2022-12-19T20:21:24.832Z,3.69
2022-12-19T20:23:53.000Z,3.81
2022-12-19T20:26:21.392Z,3.94
2022-12-19T20:28:51.055Z,3.81
2022-12-19T20:31:19.631Z,3.89
2022-12-19T20:33:50.418Z,4.08
2022-12-19T20:36:18.569Z,4.35
2022-12-19T20:38:46.952Z,4.18
2022-12-19T20:41:15.391Z,3.61
2022-12-19T20:43:43.455Z,3.53
2022-12-19T20:46:12.365Z,3.32
2022-12-19T20:48:40.992Z,3.33
2022-12-19T20:51:10.797Z,3.48
2022-12-19T20:53:41.450Z,3.40
2022-12-19T20:56:12.245Z,3.25
2022-12-19T20:58:40.593Z,3.33
2022-12-19T21:01:10.882Z,3.33
2022-12-19T21:03:40.036Z,3.38
2022-12-19T21:06:13.801Z,3.32
2022-12-19T21:08:43.010Z,3.30
2022-12-19T21:11:11.755Z,3.34
2022-12-19T21:13:41.025Z,3.21
2022-12-19T21:16:10.048Z,3.35
2022-12-19T21:18:38.722Z,3.34
2022-12-19T21:21:07.517Z,3.20
2022-12-19T21:23:37.243Z,3.23
2022-12-19T21:26:08.098Z,3.23
2022-12-19T21:28:37.717Z,3.28
2022-12-19T21:31:07.585Z,3.57
2022-12-19T21:33:35.710Z,3.20
2022-12-19T21:36:07.859Z,3.57
2022-12-19T21:38:37.246Z,3.71
2022-12-19T21:41:05.864Z,3.92
2022-12-19T21:43:34.482Z,3.90
2022-12-19T21:46:06.788Z,3.38
2022-12-19T21:48:38.962Z,3.31
2022-12-19T21:51:07.219Z,3.50
2022-12-19T21:53:36.001Z,3.61
2022-12-19T21:56:06.874Z,3.58
2022-12-19T21:58:35.112Z,3.58
2022-12-19T22:02:37.351Z,3.44
2022-12-19T22:05:06.372Z,4.23
2022-12-19T22:07:34.945Z,3.60
2022-12-19T22:10:02.950Z,3.58
2022-12-19T22:12:31.495Z,3.47
2022-12-19T22:14:59.993Z,3.88
2022-12-19T22:17:28.085Z,3.36
2022-12-19T22:19:57.530Z,3.80
2022-12-19T22:22:25.604Z,3.30
2022-12-19T22:24:53.663Z,3.33
2022-12-19T22:27:21.741Z,3.49
2022-12-19T22:29:49.867Z,3.60
2022-12-19T22:32:18.423Z,4.13
2022-12-19T22:34:48.044Z,4.07
2022-12-19T22:37:17.637Z,3.72
2022-12-19T22:39:48.286Z,3.62
2022-12-19T22:42:16.361Z,3.48
2022-12-19T22:44:44.437Z,3.79
2022-12-19T22:47:12.530Z,3.92
2022-12-19T22:49:40.709Z,4.43
2022-12-19T22:52:08.816Z,3.62
2022-12-19T22:54:38.286Z,3.23
2022-12-19T22:57:06.400Z,3.43
2022-12-19T22:59:34.431Z,3.66
2022-12-19T23:02:02.749Z,3.94
2022-12-19T23:04:31.122Z,3.77
2022-12-19T23:06:59.217Z,3.78
2022-12-19T23:09:27.555Z,3.83
2022-12-19T23:11:56.936Z,3.71
2022-12-19T23:14:24.973Z,3.70
2022-12-19T23:16:53.106Z,3.81
2022-12-19T23:19:21.220Z,4.04
2022-12-19T23:21:49.314Z,3.92
2022-12-19T23:24:17.452Z,4.34
2022-12-19T23:26:45.786Z,4.01
2022-12-19T23:29:16.217Z,3.73
2022-12-19T23:31:46.636Z,3.51
2022-12-19T23:34:14.813Z,3.39
2022-12-19T23:37:10.061Z,3.63
2022-12-19T23:39:31.060Z,3.64
2022-12-19T23:41:59.163Z,3.64
2022-12-19T23:44:28.779Z,3.55
2022-12-19T23:47:03.062Z,3.53
2022-12-19T23:49:32.494Z,3.56
2022-12-19T23:52:00.643Z,3.52
2022-12-19T23:54:28.703Z,3.50
2022-12-19T23:56:56.777Z,3.57
2022-12-19T23:59:24.887Z,3.47
